sensor_id;sensor_type;location;lat;lon;timestamp;pressure;altitude;pressure_sealevel;temperature;humidity
76794;BME280;65745;50.278;18.192;2024-01-06T00:01:16;98704.21;;;0.47;93.89
76794;BME280;65745;50.278;18.192;2024-01-06T00:03:49;98705.75;;;0.52;93.52
76794;BME280;65745;50.278;18.192;2024-01-06T00:06:21;98704.81;;;0.54;94.03
76794;BME280;65745;50.278;18.192;2024-01-06T00:08:53;98701.97;;;0.55;93.87
76794;BME280;65745;50.278;18.192;2024-01-06T00:11:25;98701.42;;;0.50;94.26
76794;BME280;65745;50.278;18.192;2024-01-06T00:13:58;98699.39;;;0.41;95.17
76794;BME280;65745;50.278;18.192;2024-01-06T00:16:30;98698.13;;;0.39;94.72
76794;BME280;65745;50.278;18.192;2024-01-06T00:19:02;98694.30;;;0.36;94.15
76794;BME280;65745;50.278;18.192;2024-01-06T00:21:34;98691.20;;;0.31;94.81
76794;BME280;65745;50.278;18.192;2024-01-06T00:24:07;98687.83;;;0.27;95.52
76794;BME280;65745;50.278;18.192;2024-01-06T00:26:39;98687.55;;;0.20;96.54
76794;BME280;65745;50.278;18.192;2024-01-06T00:29:11;98689.34;;;0.14;97.05
76794;BME280;65745;50.278;18.192;2024-01-06T00:31:43;98691.92;;;0.11;97.00
76794;BME280;65745;50.278;18.192;2024-01-06T00:34:15;98693.98;;;0.08;97.13
76794;BME280;65745;50.278;18.192;2024-01-06T00:36:48;98693.59;;;0.11;96.80
76794;BME280;65745;50.278;18.192;2024-01-06T00:39:21;98699.38;;;0.16;95.92
76794;BME280;65745;50.278;18.192;2024-01-06T00:41:53;98698.70;;;0.16;96.01
76794;BME280;65745;50.278;18.192;2024-01-06T00:44:25;98702.27;;;0.16;96.21
76794;BME280;65745;50.278;18.192;2024-01-06T00:46:57;98704.97;;;0.16;96.65
76794;BME280;65745;50.278;18.192;2024-01-06T00:49:29;98712.02;;;0.14;96.65
76794;BME280;65745;50.278;18.192;2024-01-06T00:52:02;98710.70;;;0.15;96.17
76794;BME280;65745;50.278;18.192;2024-01-06T00:54:34;98714.05;;;0.14;96.23
76794;BME280;65745;50.278;18.192;2024-01-06T00:57:06;98713.98;;;0.13;96.28
76794;BME280;65745;50.278;18.192;2024-01-06T00:59:39;98702.38;;;0.14;96.52
76794;BME280;65745;50.278;18.192;2024-01-06T01:02:11;98704.30;;;0.16;95.87
76794;BME280;65745;50.278;18.192;2024-01-06T01:04:43;98708.42;;;0.14;96.30
76794;BME280;65745;50.278;18.192;2024-01-06T01:07:15;98710.27;;;0.13;95.94
76794;BME280;65745;50.278;18.192;2024-01-06T01:09:47;98713.46;;;0.08;96.09
76794;BME280;65745;50.278;18.192;2024-01-06T01:12:20;98713.45;;;0.08;96.59
76794;BME280;65745;50.278;18.192;2024-01-06T01:14:52;98707.95;;;0.06;96.37
76794;BME280;65745;50.278;18.192;2024-01-06T01:17:24;98710.96;;;0.05;96.38
76794;BME280;65745;50.278;18.192;2024-01-06T01:19:56;98713.34;;;0.06;95.86
76794;BME280;65745;50.278;18.192;2024-01-06T01:22:29;98718.34;;;0.04;95.97
76794;BME280;65745;50.278;18.192;2024-01-06T01:25:01;98721.70;;;-0.01;95.94
76794;BME280;65745;50.278;18.192;2024-01-06T01:27:38;98718.72;;;-0.07;96.68
76794;BME280;65745;50.278;18.192;2024-01-06T01:30:11;98724.92;;;-0.09;97.47
76794;BME280;65745;50.278;18.192;2024-01-06T01:32:45;98725.18;;;-0.07;97.49
76794;BME280;65745;50.278;18.192;2024-01-06T01:35:17;98722.27;;;-0.07;97.23
76794;BME280;65745;50.278;18.192;2024-01-06T01:37:49;98720.66;;;-0.09;97.13
76794;BME280;65745;50.278;18.192;2024-01-06T01:40:21;98718.06;;;-0.11;97.28
76794;BME280;65745;50.278;18.192;2024-01-06T01:42:53;98712.11;;;-0.12;97.79
76794;BME280;65745;50.278;18.192;2024-01-06T01:45:25;98709.45;;;-0.07;97.51
76794;BME280;65745;50.278;18.192;2024-01-06T01:47:57;98708.08;;;0.01;97.25
76794;BME280;65745;50.278;18.192;2024-01-06T01:50:30;98702.23;;;0.07;96.64
76794;BME280;65745;50.278;18.192;2024-01-06T01:53:02;98696.46;;;0.11;96.24
76794;BME280;65745;50.278;18.192;2024-01-06T01:55:34;98697.04;;;0.13;96.75
76794;BME280;65745;50.278;18.192;2024-01-06T01:58:07;98701.98;;;0.17;96.70
76794;BME280;65745;50.278;18.192;2024-01-06T02:00:39;98705.91;;;0.19;96.63
76794;BME280;65745;50.278;18.192;2024-01-06T02:03:12;98708.20;;;0.20;96.61
76794;BME280;65745;50.278;18.192;2024-01-06T02:05:46;98711.60;;;0.21;96.76
76794;BME280;65745;50.278;18.192;2024-01-06T02:08:18;98705.72;;;0.22;96.82
76794;BME280;65745;50.278;18.192;2024-01-06T02:10:50;98702.59;;;0.19;96.88
76794;BME280;65745;50.278;18.192;2024-01-06T02:13:22;98699.85;;;0.19;97.16
76794;BME280;65745;50.278;18.192;2024-01-06T02:15:55;98696.92;;;0.22;97.10
76794;BME280;65745;50.278;18.192;2024-01-06T02:18:27;98697.73;;;0.25;97.36
76794;BME280;65745;50.278;18.192;2024-01-06T02:21:01;98698.50;;;0.27;96.86
76794;BME280;65745;50.278;18.192;2024-01-06T02:23:36;98694.09;;;0.27;97.28
76794;BME280;65745;50.278;18.192;2024-01-06T02:26:09;98693.56;;;0.31;96.72
76794;BME280;65745;50.278;18.192;2024-01-06T02:28:41;98692.66;;;0.33;96.68
76794;BME280;65745;50.278;18.192;2024-01-06T02:31:15;98692.63;;;0.33;96.84
76794;BME280;65745;50.278;18.192;2024-01-06T02:33:48;98688.44;;;0.29;96.91
76794;BME280;65745;50.278;18.192;2024-01-06T02:36:20;98685.09;;;0.27;97.24
76794;BME280;65745;50.278;18.192;2024-01-06T02:38:53;98685.23;;;0.26;96.92
76794;BME280;65745;50.278;18.192;2024-01-06T02:41:25;98684.77;;;0.23;97.54
76794;BME280;65745;50.278;18.192;2024-01-06T02:43:57;98683.20;;;0.22;97.48
76794;BME280;65745;50.278;18.192;2024-01-06T02:46:29;98683.84;;;0.20;97.38
76794;BME280;65745;50.278;18.192;2024-01-06T02:49:01;98680.42;;;0.20;97.76
76794;BME280;65745;50.278;18.192;2024-01-06T02:51:34;98677.45;;;0.22;97.51
76794;BME280;65745;50.278;18.192;2024-01-06T02:54:06;98675.06;;;0.25;96.66
76794;BME280;65745;50.278;18.192;2024-01-06T02:56:38;98675.60;;;0.26;96.81
76794;BME280;65745;50.278;18.192;2024-01-06T02:59:10;98683.97;;;0.28;96.51
76794;BME280;65745;50.278;18.192;2024-01-06T03:01:42;98685.49;;;0.28;96.83
76794;BME280;65745;50.278;18.192;2024-01-06T03:04:15;98681.56;;;0.31;96.43
76794;BME280;65745;50.278;18.192;2024-01-06T03:06:47;98678.38;;;0.28;96.52
76794;BME280;65745;50.278;18.192;2024-01-06T03:09:23;98677.62;;;0.26;97.15
76794;BME280;65745;50.278;18.192;2024-01-06T03:11:55;98681.52;;;0.30;96.61
76794;BME280;65745;50.278;18.192;2024-01-06T03:14:27;98683.73;;;0.35;96.60
76794;BME280;65745;50.278;18.192;2024-01-06T03:16:59;98685.02;;;0.41;96.28
76794;BME280;65745;50.278;18.192;2024-01-06T03:19:32;98681.64;;;0.51;96.08
76794;BME280;65745;50.278;18.192;2024-01-06T03:22:05;98684.88;;;0.55;95.92
76794;BME280;65745;50.278;18.192;2024-01-06T03:24:37;98688.60;;;0.59;95.56
76794;BME280;65745;50.278;18.192;2024-01-06T03:27:09;98697.55;;;0.67;95.59
76794;BME280;65745;50.278;18.192;2024-01-06T03:29:41;98698.00;;;0.74;95.65
76794;BME280;65745;50.278;18.192;2024-01-06T03:32:13;98691.52;;;0.78;95.77
76794;BME280;65745;50.278;18.192;2024-01-06T03:34:46;98693.41;;;0.78;95.57
76794;BME280;65745;50.278;18.192;2024-01-06T03:37:18;98690.42;;;0.80;95.82
76794;BME280;65745;50.278;18.192;2024-01-06T03:39:50;98684.02;;;0.77;95.78
76794;BME280;65745;50.278;18.192;2024-01-06T03:42:22;98686.98;;;0.74;95.99
76794;BME280;65745;50.278;18.192;2024-01-06T03:44:54;98692.73;;;0.74;95.84
76794;BME280;65745;50.278;18.192;2024-01-06T03:47:27;98693.34;;;0.76;95.84
76794;BME280;65745;50.278;18.192;2024-01-06T03:49:59;98685.94;;;0.77;96.01
76794;BME280;65745;50.278;18.192;2024-01-06T03:52:31;98691.73;;;0.82;95.46
76794;BME280;65745;50.278;18.192;2024-01-06T03:55:05;98697.71;;;0.89;95.19
76794;BME280;65745;50.278;18.192;2024-01-06T03:57:37;98698.80;;;0.91;95.22
76794;BME280;65745;50.278;18.192;2024-01-06T04:00:11;98698.73;;;0.89;95.36
76794;BME280;65745;50.278;18.192;2024-01-06T04:02:43;98700.50;;;0.95;95.31
76794;BME280;65745;50.278;18.192;2024-01-06T04:05:15;98699.06;;;1.02;95.31
76794;BME280;65745;50.278;18.192;2024-01-06T04:07:47;98701.36;;;1.09;95.43
76794;BME280;65745;50.278;18.192;2024-01-06T04:10:19;98705.11;;;1.14;94.90
76794;BME280;65745;50.278;18.192;2024-01-06T04:12:51;98704.52;;;1.20;95.06
76794;BME280;65745;50.278;18.192;2024-01-06T04:15:23;98698.02;;;1.28;94.95
76794;BME280;65745;50.278;18.192;2024-01-06T04:17:56;98692.98;;;1.34;94.62
76794;BME280;65745;50.278;18.192;2024-01-06T04:20:28;98695.85;;;1.33;94.63
76794;BME280;65745;50.278;18.192;2024-01-06T04:23:00;98701.71;;;1.37;94.58
76794;BME280;65745;50.278;18.192;2024-01-06T04:25:33;98699.70;;;1.42;94.38
76794;BME280;65745;50.278;18.192;2024-01-06T04:28:05;98700.96;;;1.48;94.32
76794;BME280;65745;50.278;18.192;2024-01-06T04:30:37;98698.23;;;1.53;94.42
76794;BME280;65745;50.278;18.192;2024-01-06T04:33:10;98702.61;;;1.56;93.98
76794;BME280;65745;50.278;18.192;2024-01-06T04:35:42;98705.71;;;1.58;94.11
76794;BME280;65745;50.278;18.192;2024-01-06T04:38:15;98704.97;;;1.61;94.11
76794;BME280;65745;50.278;18.192;2024-01-06T04:40:47;98706.05;;;1.67;94.06
76794;BME280;65745;50.278;18.192;2024-01-06T04:43:19;98705.00;;;1.71;93.98
76794;BME280;65745;50.278;18.192;2024-01-06T04:45:51;98701.45;;;1.72;93.81
76794;BME280;65745;50.278;18.192;2024-01-06T04:48:23;98701.71;;;1.74;93.61
76794;BME280;65745;50.278;18.192;2024-01-06T04:50:56;98701.83;;;1.77;93.76
76794;BME280;65745;50.278;18.192;2024-01-06T04:53:28;98701.96;;;1.81;93.59
76794;BME280;65745;50.278;18.192;2024-01-06T04:56:00;98704.73;;;1.83;93.41
76794;BME280;65745;50.278;18.192;2024-01-06T04:58:32;98701.36;;;1.79;93.38
76794;BME280;65745;50.278;18.192;2024-01-06T05:01:05;98701.80;;;1.76;93.84
76794;BME280;65745;50.278;18.192;2024-01-06T05:03:38;98704.34;;;1.81;93.62
76794;BME280;65745;50.278;18.192;2024-01-06T05:06:10;98704.04;;;1.82;93.36
76794;BME280;65745;50.278;18.192;2024-01-06T05:08:42;98707.45;;;1.74;93.13
76794;BME280;65745;50.278;18.192;2024-01-06T05:11:15;98710.03;;;1.74;93.17
76794;BME280;65745;50.278;18.192;2024-01-06T05:13:47;98710.68;;;1.73;93.27
76794;BME280;65745;50.278;18.192;2024-01-06T05:16:20;98710.05;;;1.70;93.30
76794;BME280;65745;50.278;18.192;2024-01-06T05:18:52;98712.85;;;1.67;93.31
76794;BME280;65745;50.278;18.192;2024-01-06T05:21:24;98714.45;;;1.69;93.34
76794;BME280;65745;50.278;18.192;2024-01-06T05:23:56;98708.52;;;1.64;93.23
76794;BME280;65745;50.278;18.192;2024-01-06T05:26:28;98711.14;;;1.58;93.29
76794;BME280;65745;50.278;18.192;2024-01-06T05:29:01;98715.14;;;1.56;93.72
76794;BME280;65745;50.278;18.192;2024-01-06T05:31:34;98724.55;;;1.58;93.50
76794;BME280;65745;50.278;18.192;2024-01-06T05:34:06;98719.36;;;1.59;93.85
76794;BME280;65745;50.278;18.192;2024-01-06T05:36:38;98722.04;;;1.59;93.42
76794;BME280;65745;50.278;18.192;2024-01-06T05:39:11;98722.60;;;1.60;93.53
76794;BME280;65745;50.278;18.192;2024-01-06T05:41:43;98725.13;;;1.60;93.68
76794;BME280;65745;50.278;18.192;2024-01-06T05:44:15;98719.08;;;1.56;93.70
76794;BME280;65745;50.278;18.192;2024-01-06T05:46:47;98727.86;;;1.56;93.87
76794;BME280;65745;50.278;18.192;2024-01-06T05:49:20;98728.23;;;1.61;93.72
76794;BME280;65745;50.278;18.192;2024-01-06T05:51:52;98727.46;;;1.58;93.79
76794;BME280;65745;50.278;18.192;2024-01-06T05:54:24;98721.80;;;1.61;93.61
76794;BME280;65745;50.278;18.192;2024-01-06T05:56:56;98723.27;;;1.69;93.68
76794;BME280;65745;50.278;18.192;2024-01-06T05:59:29;98727.78;;;1.77;93.42
76794;BME280;65745;50.278;18.192;2024-01-06T06:02:04;98728.54;;;1.84;93.46
76794;BME280;65745;50.278;18.192;2024-01-06T06:04:36;98730.77;;;1.89;93.28
76794;BME280;65745;50.278;18.192;2024-01-06T06:07:08;98731.17;;;1.91;93.07
76794;BME280;65745;50.278;18.192;2024-01-06T06:09:41;98735.83;;;1.88;93.04
76794;BME280;65745;50.278;18.192;2024-01-06T06:12:13;98738.58;;;1.89;93.10
76794;BME280;65745;50.278;18.192;2024-01-06T06:14:46;98745.83;;;1.88;93.02
76794;BME280;65745;50.278;18.192;2024-01-06T06:17:18;98747.27;;;1.81;92.93
76794;BME280;65745;50.278;18.192;2024-01-06T06:19:50;98752.91;;;1.73;92.99
76794;BME280;65745;50.278;18.192;2024-01-06T06:22:23;98749.88;;;1.73;93.28
76794;BME280;65745;50.278;18.192;2024-01-06T06:24:57;98749.79;;;1.75;93.21
76794;BME280;65745;50.278;18.192;2024-01-06T06:27:29;98750.50;;;1.76;93.21
76794;BME280;65745;50.278;18.192;2024-01-06T06:30:02;98749.52;;;1.82;93.32
76794;BME280;65745;50.278;18.192;2024-01-06T06:32:34;98755.39;;;1.90;93.25
76794;BME280;65745;50.278;18.192;2024-01-06T06:35:08;98755.98;;;1.92;93.04
76794;BME280;65745;50.278;18.192;2024-01-06T06:37:40;98752.42;;;1.92;92.89
76794;BME280;65745;50.278;18.192;2024-01-06T06:40:13;98760.92;;;1.92;92.81
76794;BME280;65745;50.278;18.192;2024-01-06T06:42:45;98764.65;;;1.92;92.84
76794;BME280;65745;50.278;18.192;2024-01-06T06:45:18;98769.31;;;1.89;92.85
76794;BME280;65745;50.278;18.192;2024-01-06T06:47:53;98770.64;;;1.94;92.73
76794;BME280;65745;50.278;18.192;2024-01-06T06:50:25;98772.98;;;1.97;93.02
76794;BME280;65745;50.278;18.192;2024-01-06T06:52:58;98773.27;;;2.00;92.73
76794;BME280;65745;50.278;18.192;2024-01-06T06:55:31;98768.25;;;2.07;92.92
76794;BME280;65745;50.278;18.192;2024-01-06T06:58:04;98765.35;;;2.11;92.70
76794;BME280;65745;50.278;18.192;2024-01-06T07:00:36;98764.38;;;2.13;92.64
76794;BME280;65745;50.278;18.192;2024-01-06T07:03:09;98767.38;;;2.16;92.34
76794;BME280;65745;50.278;18.192;2024-01-06T07:05:41;98777.84;;;2.20;92.26
76794;BME280;65745;50.278;18.192;2024-01-06T07:08:13;98788.13;;;2.22;92.10
76794;BME280;65745;50.278;18.192;2024-01-06T07:10:46;98793.02;;;2.22;92.02
76794;BME280;65745;50.278;18.192;2024-01-06T07:13:18;98793.33;;;2.25;92.05
76794;BME280;65745;50.278;18.192;2024-01-06T07:15:51;98790.74;;;2.29;92.08
76794;BME280;65745;50.278;18.192;2024-01-06T07:18:30;98786.38;;;2.31;91.66
76794;BME280;65745;50.278;18.192;2024-01-06T07:21:02;98783.05;;;2.32;91.61
76794;BME280;65745;50.278;18.192;2024-01-06T07:23:37;98783.93;;;2.34;91.62
76794;BME280;65745;50.278;18.192;2024-01-06T07:26:09;98791.71;;;2.32;91.70
76794;BME280;65745;50.278;18.192;2024-01-06T07:28:41;98795.52;;;2.25;91.78
76794;BME280;65745;50.278;18.192;2024-01-06T07:31:13;98794.46;;;2.19;92.00
76794;BME280;65745;50.278;18.192;2024-01-06T07:33:46;98796.30;;;2.23;92.23
76794;BME280;65745;50.278;18.192;2024-01-06T07:36:18;98801.92;;;2.18;92.05
76794;BME280;65745;50.278;18.192;2024-01-06T07:38:52;98804.79;;;2.17;92.25
76794;BME280;65745;50.278;18.192;2024-01-06T07:41:25;98805.44;;;2.17;92.47
76794;BME280;65745;50.278;18.192;2024-01-06T07:43:57;98802.74;;;2.23;92.59
76794;BME280;65745;50.278;18.192;2024-01-06T07:46:29;98804.79;;;2.32;92.66
76794;BME280;65745;50.278;18.192;2024-01-06T07:49:02;98804.65;;;2.43;92.45
76794;BME280;65745;50.278;18.192;2024-01-06T07:51:35;98807.43;;;2.50;92.42
76794;BME280;65745;50.278;18.192;2024-01-06T07:54:08;98805.55;;;2.55;92.35
76794;BME280;65745;50.278;18.192;2024-01-06T07:56:42;98807.02;;;2.63;92.21
76794;BME280;65745;50.278;18.192;2024-01-06T07:59:15;98807.68;;;2.68;92.10
76794;BME280;65745;50.278;18.192;2024-01-06T08:01:47;98810.10;;;2.74;91.95
76794;BME280;65745;50.278;18.192;2024-01-06T08:04:19;98814.67;;;2.78;91.92
76794;BME280;65745;50.278;18.192;2024-01-06T08:06:52;98817.28;;;2.80;91.79
76794;BME280;65745;50.278;18.192;2024-01-06T08:09:25;98820.55;;;2.81;91.71
76794;BME280;65745;50.278;18.192;2024-01-06T08:11:57;98820.97;;;2.83;91.59
76794;BME280;65745;50.278;18.192;2024-01-06T08:14:30;98822.31;;;2.83;91.59
76794;BME280;65745;50.278;18.192;2024-01-06T08:17:02;98824.27;;;2.85;91.58
76794;BME280;65745;50.278;18.192;2024-01-06T08:19:34;98830.88;;;2.90;91.70
76794;BME280;65745;50.278;18.192;2024-01-06T08:22:07;98835.83;;;2.91;91.63
76794;BME280;65745;50.278;18.192;2024-01-06T08:24:39;98835.02;;;2.92;91.59
76794;BME280;65745;50.278;18.192;2024-01-06T08:27:11;98835.42;;;2.93;91.52
76794;BME280;65745;50.278;18.192;2024-01-06T08:29:43;98841.67;;;2.98;91.58
76794;BME280;65745;50.278;18.192;2024-01-06T08:32:15;98847.25;;;3.02;91.54
76794;BME280;65745;50.278;18.192;2024-01-06T08:34:48;98853.08;;;3.03;91.26
76794;BME280;65745;50.278;18.192;2024-01-06T08:37:20;98854.38;;;2.96;90.99
76794;BME280;65745;50.278;18.192;2024-01-06T08:39:52;98855.85;;;2.99;91.27
76794;BME280;65745;50.278;18.192;2024-01-06T08:42:24;98849.91;;;3.06;91.32
76794;BME280;65745;50.278;18.192;2024-01-06T08:44:57;98856.04;;;3.10;91.15
76794;BME280;65745;50.278;18.192;2024-01-06T08:47:29;98858.12;;;3.12;91.24
76794;BME280;65745;50.278;18.192;2024-01-06T08:50:01;98860.36;;;3.13;91.13
76794;BME280;65745;50.278;18.192;2024-01-06T08:52:34;98860.67;;;3.12;91.05
76794;BME280;65745;50.278;18.192;2024-01-06T08:55:07;98861.52;;;3.12;91.43
76794;BME280;65745;50.278;18.192;2024-01-06T08:57:41;98862.15;;;3.16;91.39
76794;BME280;65745;50.278;18.192;2024-01-06T09:00:15;98866.88;;;3.20;91.44
76794;BME280;65745;50.278;18.192;2024-01-06T09:02:48;98871.58;;;3.28;91.40
76794;BME280;65745;50.278;18.192;2024-01-06T09:05:21;98874.94;;;3.32;91.24
76794;BME280;65745;50.278;18.192;2024-01-06T09:07:53;98879.77;;;3.34;91.28
76794;BME280;65745;50.278;18.192;2024-01-06T09:10:26;98878.41;;;3.39;91.30
76794;BME280;65745;50.278;18.192;2024-01-06T09:13:00;98886.89;;;3.38;91.09
76794;BME280;65745;50.278;18.192;2024-01-06T09:15:33;98886.23;;;3.34;91.08
76794;BME280;65745;50.278;18.192;2024-01-06T09:18:05;98895.17;;;3.37;91.17
76794;BME280;65745;50.278;18.192;2024-01-06T09:20:38;98894.75;;;3.39;91.07
76794;BME280;65745;50.278;18.192;2024-01-06T09:23:10;98894.02;;;3.43;91.23
76794;BME280;65745;50.278;18.192;2024-01-06T09:25:42;98887.73;;;3.44;91.02
76794;BME280;65745;50.278;18.192;2024-01-06T09:28:15;98884.22;;;3.40;90.88
76794;BME280;65745;50.278;18.192;2024-01-06T09:30:47;98891.66;;;3.39;90.81
76794;BME280;65745;50.278;18.192;2024-01-06T09:33:19;98893.45;;;3.41;90.94
76794;BME280;65745;50.278;18.192;2024-01-06T09:35:51;98891.85;;;3.45;90.98
76794;BME280;65745;50.278;18.192;2024-01-06T09:38:24;98896.08;;;3.44;90.82
76794;BME280;65745;50.278;18.192;2024-01-06T09:40:56;98896.08;;;3.44;90.90
76794;BME280;65745;50.278;18.192;2024-01-06T09:43:30;98894.61;;;3.46;90.61
76794;BME280;65745;50.278;18.192;2024-01-06T09:46:10;98897.55;;;3.42;90.62
76794;BME280;65745;50.278;18.192;2024-01-06T09:48:44;98897.44;;;3.44;90.48
76794;BME280;65745;50.278;18.192;2024-01-06T09:51:17;98896.47;;;3.40;90.39
76794;BME280;65745;50.278;18.192;2024-01-06T09:53:56;98893.04;;;3.39;90.60
76794;BME280;65745;50.278;18.192;2024-01-06T09:56:29;98890.39;;;3.36;90.52
76794;BME280;65745;50.278;18.192;2024-01-06T09:59:02;98893.55;;;3.39;90.86
76794;BME280;65745;50.278;18.192;2024-01-06T10:01:35;98896.20;;;3.42;90.69
76794;BME280;65745;50.278;18.192;2024-01-06T10:04:07;98897.65;;;3.45;90.57
76794;BME280;65745;50.278;18.192;2024-01-06T10:06:39;98894.15;;;3.48;90.52
76794;BME280;65745;50.278;18.192;2024-01-06T10:09:13;98896.11;;;3.50;90.70
76794;BME280;65745;50.278;18.192;2024-01-06T10:11:45;98894.98;;;3.53;90.69
76794;BME280;65745;50.278;18.192;2024-01-06T10:14:17;98893.83;;;3.54;90.89
76794;BME280;65745;50.278;18.192;2024-01-06T10:16:52;98893.30;;;3.59;90.72
76794;BME280;65745;50.278;18.192;2024-01-06T10:19:24;98888.35;;;3.64;90.91
76794;BME280;65745;50.278;18.192;2024-01-06T10:21:57;98891.02;;;3.67;90.68
76794;BME280;65745;50.278;18.192;2024-01-06T10:24:33;98890.24;;;3.70;90.69
76794;BME280;65745;50.278;18.192;2024-01-06T10:27:05;98891.46;;;3.70;90.81
76794;BME280;65745;50.278;18.192;2024-01-06T10:29:40;98890.89;;;3.68;90.86
76794;BME280;65745;50.278;18.192;2024-01-06T10:32:13;98886.64;;;3.69;91.10
76794;BME280;65745;50.278;18.192;2024-01-06T10:34:45;98884.40;;;3.68;91.23
76794;BME280;65745;50.278;18.192;2024-01-06T10:37:19;98886.22;;;3.66;90.86
76794;BME280;65745;50.278;18.192;2024-01-06T10:40:07;98885.56;;;3.62;90.94
76794;BME280;65745;50.278;18.192;2024-01-06T10:42:40;98884.98;;;3.59;91.20
76794;BME280;65745;50.278;18.192;2024-01-06T10:45:14;98884.58;;;3.57;91.36
76794;BME280;65745;50.278;18.192;2024-01-06T10:47:47;98883.88;;;3.62;91.35
76794;BME280;65745;50.278;18.192;2024-01-06T10:50:21;98881.50;;;3.62;91.30
76794;BME280;65745;50.278;18.192;2024-01-06T10:52:54;98883.65;;;3.65;91.41
76794;BME280;65745;50.278;18.192;2024-01-06T10:55:27;98886.50;;;3.75;91.00
76794;BME280;65745;50.278;18.192;2024-01-06T10:58:00;98886.59;;;3.78;90.80
76794;BME280;65745;50.278;18.192;2024-01-06T11:00:34;98886.36;;;3.76;90.96
76794;BME280;65745;50.278;18.192;2024-01-06T11:03:07;98886.31;;;3.75;91.13
76794;BME280;65745;50.278;18.192;2024-01-06T11:05:42;98887.17;;;3.75;90.75
76794;BME280;65745;50.278;18.192;2024-01-06T11:08:18;98884.75;;;3.74;91.07
76794;BME280;65745;50.278;18.192;2024-01-06T11:10:51;98878.59;;;3.73;91.25
76794;BME280;65745;50.278;18.192;2024-01-06T11:13:24;98885.20;;;3.72;91.16
76794;BME280;65745;50.278;18.192;2024-01-06T11:15:57;98879.47;;;3.63;91.75
76794;BME280;65745;50.278;18.192;2024-01-06T11:18:36;98876.96;;;3.64;91.39
76794;BME280;65745;50.278;18.192;2024-01-06T11:21:18;98875.27;;;3.59;92.00
76794;BME280;65745;50.278;18.192;2024-01-06T11:24:17;98873.64;;;3.61;91.97
76794;BME280;65745;50.278;18.192;2024-01-06T11:26:56;98873.89;;;3.64;91.64
76794;BME280;65745;50.278;18.192;2024-01-06T11:29:28;98873.18;;;3.63;91.72
76794;BME280;65745;50.278;18.192;2024-01-06T11:32:26;98870.13;;;3.63;91.43
76794;BME280;65745;50.278;18.192;2024-01-06T11:35:06;98864.60;;;3.61;91.46
76794;BME280;65745;50.278;18.192;2024-01-06T11:37:53;98864.27;;;3.61;91.38
76794;BME280;65745;50.278;18.192;2024-01-06T11:40:34;98865.42;;;3.60;91.42
76794;BME280;65745;50.278;18.192;2024-01-06T11:43:08;98865.18;;;3.57;91.58
76794;BME280;65745;50.278;18.192;2024-01-06T11:45:41;98864.21;;;3.53;91.45
76794;BME280;65745;50.278;18.192;2024-01-06T11:48:17;98862.23;;;3.50;91.66
76794;BME280;65745;50.278;18.192;2024-01-06T11:50:52;98864.13;;;3.51;91.56
76794;BME280;65745;50.278;18.192;2024-01-06T11:53:24;98865.64;;;3.51;91.57
76794;BME280;65745;50.278;18.192;2024-01-06T11:55:58;98868.25;;;3.47;91.57
76794;BME280;65745;50.278;18.192;2024-01-06T11:58:31;98864.36;;;3.48;91.58
76794;BME280;65745;50.278;18.192;2024-01-06T12:01:04;98866.58;;;3.48;91.61
76794;BME280;65745;50.278;18.192;2024-01-06T12:03:37;98866.67;;;3.51;91.44
76794;BME280;65745;50.278;18.192;2024-01-06T12:06:09;98869.17;;;3.49;91.34
76794;BME280;65745;50.278;18.192;2024-01-06T12:08:43;98867.66;;;3.50;91.51
76794;BME280;65745;50.278;18.192;2024-01-06T12:11:18;98866.92;;;3.48;91.72
76794;BME280;65745;50.278;18.192;2024-01-06T12:13:50;98870.27;;;3.52;91.59
76794;BME280;65745;50.278;18.192;2024-01-06T12:16:23;98870.66;;;3.53;91.39
76794;BME280;65745;50.278;18.192;2024-01-06T12:18:58;98874.64;;;3.55;91.77
76794;BME280;65745;50.278;18.192;2024-01-06T12:21:32;98875.77;;;3.59;91.68
76794;BME280;65745;50.278;18.192;2024-01-06T12:24:17;98878.35;;;3.59;91.33
76794;BME280;65745;50.278;18.192;2024-01-06T12:26:51;98879.30;;;3.57;91.70
76794;BME280;65745;50.278;18.192;2024-01-06T12:29:24;98879.39;;;3.55;91.48
76794;BME280;65745;50.278;18.192;2024-01-06T12:31:58;98879.39;;;3.54;91.62
76794;BME280;65745;50.278;18.192;2024-01-06T12:34:31;98876.94;;;3.58;91.43
76794;BME280;65745;50.278;18.192;2024-01-06T12:37:04;98879.94;;;3.56;91.44
76794;BME280;65745;50.278;18.192;2024-01-06T12:39:36;98880.79;;;3.56;91.23
76794;BME280;65745;50.278;18.192;2024-01-06T12:42:08;98881.08;;;3.59;91.31
76794;BME280;65745;50.278;18.192;2024-01-06T12:44:41;98886.76;;;3.61;91.35
76794;BME280;65745;50.278;18.192;2024-01-06T12:47:13;98884.23;;;3.63;91.05
76794;BME280;65745;50.278;18.192;2024-01-06T12:49:45;98887.28;;;3.62;91.03
76794;BME280;65745;50.278;18.192;2024-01-06T12:52:17;98884.58;;;3.57;91.36
76794;BME280;65745;50.278;18.192;2024-01-06T12:54:49;98882.77;;;3.60;91.24
76794;BME280;65745;50.278;18.192;2024-01-06T12:57:23;98887.89;;;3.60;91.28
76794;BME280;65745;50.278;18.192;2024-01-06T12:59:56;98892.13;;;3.58;91.24
76794;BME280;65745;50.278;18.192;2024-01-06T13:02:28;98891.03;;;3.56;91.06
76794;BME280;65745;50.278;18.192;2024-01-06T13:05:00;98894.23;;;3.56;91.23
76794;BME280;65745;50.278;18.192;2024-01-06T13:07:32;98897.61;;;3.55;91.32
76794;BME280;65745;50.278;18.192;2024-01-06T13:10:05;98899.54;;;3.56;91.59
76794;BME280;65745;50.278;18.192;2024-01-06T13:12:38;98904.70;;;3.58;91.13
76794;BME280;65745;50.278;18.192;2024-01-06T13:15:11;98903.52;;;3.59;91.11
76794;BME280;65745;50.278;18.192;2024-01-06T13:17:43;98901.20;;;3.61;91.18
76794;BME280;65745;50.278;18.192;2024-01-06T13:20:15;98903.77;;;3.61;90.85
76794;BME280;65745;50.278;18.192;2024-01-06T13:22:48;98909.56;;;3.56;90.88
76794;BME280;65745;50.278;18.192;2024-01-06T13:25:22;98916.70;;;3.56;90.96
76794;BME280;65745;50.278;18.192;2024-01-06T13:27:54;98916.75;;;3.52;90.75
76794;BME280;65745;50.278;18.192;2024-01-06T13:30:27;98915.34;;;3.45;90.94